Coleharbor, North Dakota
Current Conditions -  °F | °C
As of 3:15 PM on Wednesday 26 Nov 2014 (Local Time) from KHZE Reporting Station
Scattered Clouds Scattered Clouds  
Wind Chill:   Ceiling: Unl
Heat Index:   Visibility: 10mi
Dew Point:   Wind: 5mph
Humidity: 73%   Direction: 50°NE
Pressure: 30.4"   Gusts: NA
Location:  47.54°N, 101.22°W
Report Text: KHZE 262115Z AUTO 05004KT 10SM SCT015 M13/M17 A3040 RMK AO2
Loading
Personal Weather Stations






























Interactive Weather Map New forecast layout! Learn more

10-Day Weather Forecast

Advertisements
Track Severe Weather on mobile